Time;durP1;ratioP1;P1;durP2;ratioP2;P2;SDS_P1;SDS_P2;PMS_P1;PMS_P2;Temp;Humidity;BMP_temperature;BMP_pressure;BME280_temperature;BME280_humidity;BME280_pressure;Samples;Min_cycle;Max_cycle;Signal;HPM_P1;HPM_P2
2021/01/12 00:02:22;;;;;;;11.97;9.93;;;;;;;;;;5028486;28;20184;-57
2021/01/12 00:04:48;;;;;;;12.57;10.30;;;;;;;;;;5028280;28;20910;-57
2021/01/12 00:07:15;;;;;;;13.37;11.13;;;;;;;;;;5028865;28;20898;-58
2021/01/12 00:09:41;;;;;;;16.43;11.20;;;;;;;;;;5029644;28;20570;-58
2021/01/12 00:12:07;;;;;;;14.83;10.93;;;;;;;;;;5013996;28;20252;-58
2021/01/12 00:14:34;;;;;;;12.93;10.77;;;;;;;;;;5032233;28;20181;-58
2021/01/12 00:17:01;;;;;;;15.00;9.70;;;;;;;;;;5031530;28;20178;-57
2021/01/12 00:19:27;;;;;;;11.37;9.37;;;;;;;;;;5032384;28;20984;-58
2021/01/12 00:21:53;;;;;;;16.83;11.03;;;;;;;;;;5032616;28;20479;-60
2021/01/12 00:24:19;;;;;;;11.20;9.43;;;;;;;;;;5031157;28;20178;-60
2021/01/12 00:26:46;;;;;;;11.47;9.30;;;;;;;;;;5013927;28;20651;-57
2021/01/12 00:29:12;;;;;;;12.67;9.77;;;;;;;;;;5032747;28;20416;-57
2021/01/12 00:31:39;;;;;;;11.57;9.10;;;;;;;;;;5013966;28;20186;-57
2021/01/12 00:34:05;;;;;;;12.27;10.77;;;;;;;;;;5032630;28;20571;-57
2021/01/12 00:36:31;;;;;;;12.63;9.37;;;;;;;;;;5014421;28;20185;-58
2021/01/12 00:38:57;;;;;;;11.30;9.73;;;;;;;;;;5032269;28;20202;-57
2021/01/12 00:41:24;;;;;;;13.03;9.10;;;;;;;;;;5012938;28;20182;-58
2021/01/12 00:43:51;;;;;;;14.23;9.53;;;;;;;;;;5032008;28;20200;-58
2021/01/12 00:46:17;;;;;;;11.07;9.17;;;;;;;;;;5032051;28;20531;-57
2021/01/12 00:48:43;;;;;;;14.10;10.53;;;;;;;;;;5031156;28;20842;-58
2021/01/12 00:51:09;;;;;;;12.03;9.50;;;;;;;;;;5023543;28;20197;-59
2021/01/12 00:53:35;;;;;;;9.87;8.40;;;;;;;;;;5013807;28;20177;-58
2021/01/12 00:56:01;;;;;;;11.87;9.70;;;;;;;;;;5031216;28;20643;-58
2021/01/12 00:58:27;;;;;;;10.93;9.63;;;;;;;;;;5031686;28;20198;-57
2021/01/12 01:00:53;;;;;;;13.10;9.70;;;;;;;;;;5013048;28;20427;-58
2021/01/12 01:03:19;;;;;;;12.37;9.57;;;;;;;;;;5028560;28;20192;-58
2021/01/12 01:05:45;;;;;;;11.87;9.47;;;;;;;;;;5030741;28;20455;-58
2021/01/12 01:08:11;;;;;;;9.63;8.63;;;;;;;;;;5031064;28;20707;-57
2021/01/12 01:10:40;;;;;;;10.17;9.07;;;;;;;;;;5030799;28;20185;-57
2021/01/12 01:13:06;;;;;;;10.60;9.33;;;;;;;;;;5010453;28;20214;-58
2021/01/12 01:15:32;;;;;;;10.87;9.20;;;;;;;;;;5013016;28;20221;-58
2021/01/12 01:17:58;;;;;;;10.30;9.10;;;;;;;;;;5012945;28;20213;-58
2021/01/12 01:20:24;;;;;;;11.13;8.77;;;;;;;;;;5028878;28;20190;-58
2021/01/12 01:22:50;;;;;;;10.93;8.60;;;;;;;;;;5031070;28;20182;-58
2021/01/12 01:25:16;;;;;;;10.70;9.43;;;;;;;;;;5031137;28;20621;-58
2021/01/12 01:27:42;;;;;;;10.17;8.37;;;;;;;;;;5012343;28;20586;-58
2021/01/12 01:30:08;;;;;;;10.77;8.47;;;;;;;;;;5031210;28;20405;-57
2021/01/12 01:32:34;;;;;;;12.40;8.97;;;;;;;;;;5030938;28;20185;-57
2021/01/12 01:35:00;;;;;;;9.00;8.10;;;;;;;;;;5031284;28;20184;-56
2021/01/12 01:37:26;;;;;;;10.50;8.80;;;;;;;;;;5030808;28;20205;-56
2021/01/12 01:39:52;;;;;;;12.10;9.20;;;;;;;;;;5012621;28;20687;-56
2021/01/12 01:42:18;;;;;;;9.93;8.40;;;;;;;;;;5012531;28;20482;-59
2021/01/12 01:44:44;;;;;;;10.30;7.87;;;;;;;;;;5030963;28;20186;-57
2021/01/12 01:47:10;;;;;;;10.30;7.97;;;;;;;;;;5030557;28;20205;-57
2021/01/12 01:49:36;;;;;;;9.90;8.27;;;;;;;;;;5030820;28;20807;-57
2021/01/12 01:52:02;;;;;;;9.27;7.80;;;;;;;;;;5009600;28;20760;-57
2021/01/12 01:54:28;;;;;;;11.53;8.10;;;;;;;;;;5031089;28;20267;-57
2021/01/12 01:56:55;;;;;;;10.13;8.40;;;;;;;;;;5011613;28;20201;-57
2021/01/12 01:59:21;;;;;;;9.07;7.20;;;;;;;;;;5010926;28;20209;-57
2021/01/12 02:01:46;;;;;;;9.97;8.50;;;;;;;;;;5025513;28;20173;-57
2021/01/12 02:04:20;;;;;;;10.83;8.13;;;;;;;;;;5030853;28;20212;-57
2021/01/12 02:06:47;;;;;;;9.10;7.87;;;;;;;;;;5012709;28;20228;-57
2021/01/12 02:09:29;;;;;;;10.63;7.93;;;;;;;;;;5029511;28;20559;-57
2021/01/12 02:11:56;;;;;;;9.10;7.40;;;;;;;;;;5029971;28;20189;-57
2021/01/12 02:14:26;;;;;;;7.83;6.67;;;;;;;;;;5012099;28;20354;-58
2021/01/12 02:16:53;;;;;;;9.37;7.53;;;;;;;;;;5011693;28;20182;-57
2021/01/12 02:19:21;;;;;;;10.77;8.03;;;;;;;;;;5030401;28;20456;-59
2021/01/12 02:21:48;;;;;;;8.77;7.60;;;;;;;;;;5029263;28;20224;-57
2021/01/12 02:24:15;;;;;;;7.90;7.07;;;;;;;;;;5012223;28;20432;-59
2021/01/12 02:26:41;;;;;;;9.00;7.43;;;;;;;;;;5029834;28;20239;-57
2021/01/12 02:29:07;;;;;;;8.20;7.30;;;;;;;;;;5029630;28;20190;-57
2021/01/12 02:31:33;;;;;;;9.50;7.97;;;;;;;;;;5029413;28;20432;-57
2021/01/12 02:34:02;;;;;;;10.67;7.93;;;;;;;;;;5030039;28;20250;-59
2021/01/12 02:36:30;;;;;;;8.07;6.73;;;;;;;;;;5012184;28;20294;-57
2021/01/12 02:38:57;;;;;;;10.37;7.33;;;;;;;;;;5029986;28;20213;-57
2021/01/12 02:41:28;;;;;;;8.37;6.30;;;;;;;;;;5026178;28;20428;-57
2021/01/12 02:43:54;;;;;;;8.60;7.50;;;;;;;;;;5028124;28;20647;-57
2021/01/12 02:46:20;;;;;;;9.90;6.60;;;;;;;;;;5029250;28;20648;-58
2021/01/12 02:48:46;;;;;;;8.23;7.27;;;;;;;;;;5028924;28;20435;-57
2021/01/12 02:51:12;;;;;;;8.07;7.17;;;;;;;;;;5029498;28;20213;-57
2021/01/12 02:53:38;;;;;;;8.87;7.13;;;;;;;;;;5010470;28;20563;-57
2021/01/12 02:56:04;;;;;;;7.73;6.70;;;;;;;;;;5028972;28;20193;-57
2021/01/12 02:58:31;;;;;;;7.10;6.23;;;;;;;;;;5029260;28;20640;-58
2021/01/12 03:00:56;;;;;;;7.57;6.63;;;;;;;;;;5010718;28;20185;-58
2021/01/12 03:03:23;;;;;;;7.43;6.63;;;;;;;;;;5011397;28;20432;-57
2021/01/12 03:05:49;;;;;;;8.40;6.93;;;;;;;;;;5029283;28;20223;-60
2021/01/12 03:08:15;;;;;;;6.93;6.23;;;;;;;;;;5028685;28;20557;-59
2021/01/12 03:10:41;;;;;;;7.00;6.30;;;;;;;;;;5028759;28;20778;-57
2021/01/12 03:13:07;;;;;;;8.67;5.90;;;;;;;;;;5029180;28;20189;-57
2021/01/12 03:15:35;;;;;;;7.40;6.50;;;;;;;;;;5028511;28;20185;-59
2021/01/12 03:18:01;;;;;;;7.23;6.47;;;;;;;;;;5024601;28;20209;-57
2021/01/12 03:20:28;;;;;;;7.03;5.43;;;;;;;;;;5011173;28;20186;-58
2021/01/12 03:22:54;;;;;;;6.00;5.40;;;;;;;;;;5028512;28;20180;-58
2021/01/12 03:25:20;;;;;;;8.17;6.77;;;;;;;;;;5028623;28;20456;-57
2021/01/12 03:27:49;;;;;;;6.73;6.03;;;;;;;;;;5010800;28;20246;-57
2021/01/12 03:30:17;;;;;;;6.33;5.30;;;;;;;;;;5028290;28;20431;-58
2021/01/12 03:32:43;;;;;;;7.57;6.03;;;;;;;;;;5027049;28;20261;-57
2021/01/12 03:35:10;;;;;;;6.20;5.37;;;;;;;;;;5028705;28;20185;-57
2021/01/12 03:37:36;;;;;;;5.90;5.27;;;;;;;;;;5010261;28;20432;-57
2021/01/12 03:40:04;;;;;;;6.20;5.60;;;;;;;;;;5028992;28;20174;-57
2021/01/12 03:42:30;;;;;;;8.57;5.57;;;;;;;;;;5028055;28;20467;-57
2021/01/12 03:44:56;;;;;;;6.57;5.40;;;;;;;;;;5027316;28;20587;-60
2021/01/12 03:47:22;;;;;;;7.20;5.60;;;;;;;;;;5026831;28;20235;-57
2021/01/12 03:49:48;;;;;;;5.80;5.20;;;;;;;;;;5017517;28;20233;-60
2021/01/12 03:52:14;;;;;;;5.70;5.00;;;;;;;;;;5008032;28;20185;-57
2021/01/12 03:54:40;;;;;;;5.53;4.60;;;;;;;;;;5029040;28;20644;-58
2021/01/12 03:57:06;;;;;;;4.87;4.37;;;;;;;;;;5010575;28;20562;-58
2021/01/12 03:59:32;;;;;;;5.90;4.77;;;;;;;;;;5027673;28;20518;-58
2021/01/12 04:01:58;;;;;;;5.63;5.13;;;;;;;;;;5022813;28;20269;-58
2021/01/12 04:04:24;;;;;;;5.27;4.77;;;;;;;;;;5029244;28;20585;-57
2021/01/12 04:06:50;;;;;;;5.60;4.90;;;;;;;;;;5011188;28;20531;-60
2021/01/12 04:09:16;;;;;;;5.30;4.33;;;;;;;;;;5028333;28;20233;-58
2021/01/12 04:11:44;;;;;;;4.97;4.47;;;;;;;;;;5028021;28;20228;-57
2021/01/12 04:14:10;;;;;;;4.90;4.40;;;;;;;;;;5028369;28;20194;-57
2021/01/12 04:16:36;;;;;;;4.40;4.00;;;;;;;;;;5028759;28;20628;-58
2021/01/12 04:19:02;;;;;;;9.70;4.30;;;;;;;;;;5028389;28;20487;-58
2021/01/12 04:21:28;;;;;;;4.73;4.03;;;;;;;;;;5028094;28;20425;-58
2021/01/12 04:23:54;;;;;;;4.57;3.93;;;;;;;;;;5028852;28;20253;-57
2021/01/12 04:26:20;;;;;;;4.50;4.10;;;;;;;;;;5027820;28;21930;-58
2021/01/12 04:28:46;;;;;;;4.20;3.80;;;;;;;;;;5028693;28;20178;-58
2021/01/12 04:31:12;;;;;;;4.40;3.93;;;;;;;;;;5028201;28;20444;-57
2021/01/12 04:33:38;;;;;;;4.17;3.77;;;;;;;;;;5027469;28;20182;-57
2021/01/12 04:36:05;;;;;;;4.93;4.10;;;;;;;;;;5010939;28;20478;-57
2021/01/12 04:38:31;;;;;;;4.63;4.13;;;;;;;;;;5009696;28;20647;-59
2021/01/12 04:40:57;;;;;;;3.80;3.50;;;;;;;;;;5027959;28;20206;-57
2021/01/12 04:43:23;;;;;;;3.87;3.33;;;;;;;;;;5028150;28;20190;-57
2021/01/12 04:45:49;;;;;;;4.60;3.77;;;;;;;;;;5010382;28;20212;-58
2021/01/12 04:48:15;;;;;;;3.70;3.40;;;;;;;;;;5028629;28;20516;-57
2021/01/12 04:50:41;;;;;;;3.70;3.40;;;;;;;;;;5028746;28;20213;-57
2021/01/12 04:53:07;;;;;;;3.77;3.30;;;;;;;;;;5027893;28;20431;-57
2021/01/12 04:55:33;;;;;;;4.20;3.33;;;;;;;;;;5030772;28;20174;-58
2021/01/12 04:57:59;;;;;;;3.37;3.03;;;;;;;;;;5031241;28;20594;-58
2021/01/12 05:00:30;;;;;;;4.33;3.77;;;;;;;;;;5013168;28;20791;-58
2021/01/12 05:03:06;;;;;;;4.03;3.00;;;;;;;;;;5031405;28;21037;-58
2021/01/12 05:05:34;;;;;;;5.13;3.20;;;;;;;;;;5014446;28;20462;-57
2021/01/12 05:08:04;;;;;;;3.83;3.43;;;;;;;;;;5031688;28;20221;-58
2021/01/12 05:10:38;;;;;;;3.73;3.43;;;;;;;;;;5032051;28;20186;-58
2021/01/12 05:13:09;;;;;;;3.27;2.90;;;;;;;;;;5032248;28;20396;-58
2021/01/12 05:15:36;;;;;;;3.50;3.10;;;;;;;;;;5031011;28;20429;-57
2021/01/12 05:18:05;;;;;;;3.40;2.70;;;;;;;;;;5031312;28;20723;-58
2021/01/12 05:20:36;;;;;;;3.30;2.80;;;;;;;;;;5013753;28;20655;-58
2021/01/12 05:23:07;;;;;;;3.80;3.40;;;;;;;;;;5029788;28;20162;-58
2021/01/12 05:25:34;;;;;;;2.83;2.63;;;;;;;;;;5027830;28;20279;-58
2021/01/12 05:28:04;;;;;;;3.10;2.80;;;;;;;;;;5030799;28;20231;-58
2021/01/12 05:30:31;;;;;;;3.17;2.87;;;;;;;;;;5031372;28;20413;-57
2021/01/12 05:32:58;;;;;;;3.10;2.80;;;;;;;;;;5029427;28;20178;-59
2021/01/12 05:35:26;;;;;;;2.97;2.67;;;;;;;;;;5012302;28;20413;-58
2021/01/12 05:38:02;;;;;;;3.00;2.50;;;;;;;;;;4994081;28;20503;-60
2021/01/12 05:40:32;;;;;;;3.17;2.87;;;;;;;;;;5030584;28;20174;-58
2021/01/12 05:43:05;;;;;;;3.07;2.77;;;;;;;;;;5030928;28;20416;-58
2021/01/12 05:45:38;;;;;;;2.83;2.53;;;;;;;;;;5030072;28;20476;-60
2021/01/12 05:48:05;;;;;;;2.80;2.60;;;;;;;;;;5011608;28;20621;-57
2021/01/12 05:50:31;;;;;;;2.27;2.07;;;;;;;;;;5017735;28;20452;-58
2021/01/12 05:53:02;;;;;;;2.50;2.20;;;;;;;;;;5021664;28;20192;-59
2021/01/12 05:55:28;;;;;;;2.67;2.27;;;;;;;;;;5019034;28;20169;-60
2021/01/12 05:58:00;;;;;;;2.80;2.50;;;;;;;;;;5031266;28;20178;-58
2021/01/12 06:00:27;;;;;;;2.80;2.50;;;;;;;;;;5002047;28;20869;-57
2021/01/12 06:02:56;;;;;;;2.43;2.20;;;;;;;;;;5030620;28;20503;-58
2021/01/12 06:05:22;;;;;;;2.47;2.27;;;;;;;;;;5011410;28;20417;-58
2021/01/12 06:07:48;;;;;;;2.30;2.10;;;;;;;;;;5010530;28;20175;-58
2021/01/12 06:10:18;;;;;;;2.20;2.00;;;;;;;;;;5026131;28;20640;-58
2021/01/12 06:12:48;;;;;;;2.87;2.27;;;;;;;;;;5013132;28;20186;-58
2021/01/12 06:15:17;;;;;;;3.67;2.53;;;;;;;;;;5010818;28;20166;-58
2021/01/12 06:17:44;;;;;;;3.00;2.70;;;;;;;;;;5008776;28;20471;-58
2021/01/12 06:20:15;;;;;;;2.67;2.47;;;;;;;;;;5030612;28;20700;-59
2021/01/12 06:22:50;;;;;;;3.77;2.80;;;;;;;;;;5022177;28;20257;-58
2021/01/12 06:25:17;;;;;;;2.50;2.30;;;;;;;;;;5017295;28;20917;-58
2021/01/12 06:27:43;;;;;;;2.70;2.50;;;;;;;;;;5012325;28;20196;-58
2021/01/12 06:30:10;;;;;;;2.90;2.60;;;;;;;;;;5030307;28;20654;-58
2021/01/12 06:32:36;;;;;;;3.80;2.90;;;;;;;;;;5030244;28;20200;-58
2021/01/12 06:35:10;;;;;;;3.33;3.00;;;;;;;;;;5030181;28;20190;-58
2021/01/12 06:37:37;;;;;;;2.90;2.60;;;;;;;;;;5012399;28;20174;-58
2021/01/12 06:40:04;;;;;;;2.70;2.50;;;;;;;;;;5011656;28;20177;-58
2021/01/12 06:42:31;;;;;;;4.77;2.63;;;;;;;;;;5025364;28;20184;-58
2021/01/12 06:44:58;;;;;;;3.07;2.67;;;;;;;;;;5009367;28;20182;-60
2021/01/12 06:47:25;;;;;;;2.60;2.40;;;;;;;;;;5026936;28;20186;-58
2021/01/12 06:50:01;;;;;;;2.80;2.40;;;;;;;;;;5009261;28;20181;-58
2021/01/12 06:52:27;;;;;;;3.70;2.57;;;;;;;;;;5009250;28;20331;-59
2021/01/12 06:54:53;;;;;;;2.87;2.57;;;;;;;;;;5022161;28;20297;-58
2021/01/12 06:57:23;;;;;;;2.77;2.47;;;;;;;;;;5017494;28;20245;-58
2021/01/12 06:59:53;;;;;;;2.80;2.30;;;;;;;;;;5026998;28;20252;-58
2021/01/12 07:02:20;;;;;;;1.90;1.80;;;;;;;;;;5020006;28;20175;-58
2021/01/12 07:05:08;;;;;;;3.03;2.73;;;;;;;;;;5009415;28;20270;-58
2021/01/12 07:07:44;;;;;;;2.87;2.20;;;;;;;;;;5010076;28;20169;-58
2021/01/12 07:10:14;;;;;;;2.37;2.17;;;;;;;;;;5017245;28;20225;-60
2021/01/12 07:12:49;;;;;;;2.80;2.60;;;;;;;;;;5001423;28;20696;-62
2021/01/12 07:15:17;;;;;;;2.43;2.10;;;;;;;;;;4999068;28;20162;-58
2021/01/12 07:17:47;;;;;;;2.10;1.83;;;;;;;;;;5023599;28;20186;-58
2021/01/12 07:20:21;;;;;;;3.53;1.93;;;;;;;;;;5030405;28;20186;-58
2021/01/12 07:22:56;;;;;;;2.20;2.00;;;;;;;;;;5030216;28;20525;-58
2021/01/12 07:25:24;;;;;;;2.93;2.00;;;;;;;;;;5029135;28;20177;-58
2021/01/12 07:28:02;;;;;;;2.03;1.83;;;;;;;;;;5009137;28;20182;-58
2021/01/12 07:30:29;;;;;;;2.13;1.60;;;;;;;;;;5008442;28;20179;-58
2021/01/12 07:32:56;;;;;;;3.40;2.10;;;;;;;;;;4994144;28;20237;-57
2021/01/12 07:35:22;;;;;;;1.70;1.60;;;;;;;;;;5009241;28;20506;-58
2021/01/12 07:37:49;;;;;;;2.00;1.80;;;;;;;;;;4990881;28;20248;-58
2021/01/12 07:40:15;;;;;;;2.10;1.90;;;;;;;;;;4991208;28;20277;-58
2021/01/12 07:42:47;;;;;;;2.73;2.27;;;;;;;;;;5024538;28;20188;-61
2021/01/12 07:45:15;;;;;;;2.20;2.00;;;;;;;;;;5028460;28;20174;-58
2021/01/12 07:47:41;;;;;;;2.13;1.93;;;;;;;;;;5029113;28;20177;-58
2021/01/12 07:50:07;;;;;;;2.13;1.70;;;;;;;;;;5028442;28;20231;-60
2021/01/12 07:52:33;;;;;;;1.83;1.73;;;;;;;;;;5026000;28;20668;-60
2021/01/12 07:54:59;;;;;;;2.10;1.90;;;;;;;;;;4998716;28;20182;-58
2021/01/12 07:57:26;;;;;;;1.90;1.70;;;;;;;;;;5017414;28;20631;-58
2021/01/12 07:59:52;;;;;;;1.73;1.63;;;;;;;;;;5009742;28;20259;-58
2021/01/12 08:02:19;;;;;;;2.40;2.20;;;;;;;;;;5021733;28;20659;-58
2021/01/12 08:04:45;;;;;;;2.53;2.03;;;;;;;;;;5028207;28;20196;-59
2021/01/12 08:07:21;;;;;;;2.97;2.23;;;;;;;;;;5028436;28;20320;-59
2021/01/12 08:09:47;;;;;;;2.30;2.10;;;;;;;;;;5027103;28;20314;-56
2021/01/12 08:12:13;;;;;;;3.00;2.67;;;;;;;;;;5025169;28;20243;-58
2021/01/12 08:14:39;;;;;;;3.10;2.80;;;;;;;;;;5023405;28;20185;-58
2021/01/12 08:17:06;;;;;;;3.40;3.10;;;;;;;;;;5022832;28;20544;-57
2021/01/12 08:19:32;;;;;;;4.00;3.07;;;;;;;;;;5013683;28;20301;-58
2021/01/12 08:21:58;;;;;;;3.63;3.23;;;;;;;;;;5024903;28;20912;-58
2021/01/12 08:24:26;;;;;;;3.90;3.50;;;;;;;;;;5013364;28;20173;-58
2021/01/12 08:26:52;;;;;;;3.80;3.40;;;;;;;;;;5026237;28;20521;-58
2021/01/12 08:29:22;;;;;;;4.40;3.23;;;;;;;;;;5027861;28;20564;-57
2021/01/12 08:31:49;;;;;;;3.27;2.97;;;;;;;;;;5029440;28;20178;-58
2021/01/12 08:34:17;;;;;;;3.07;2.83;;;;;;;;;;5031671;28;20209;-57
2021/01/12 08:36:44;;;;;;;4.30;2.83;;;;;;;;;;5031572;28;20170;-59
2021/01/12 08:39:10;;;;;;;3.40;3.10;;;;;;;;;;5029285;28;20236;-57
2021/01/12 08:41:40;;;;;;;3.57;2.90;;;;;;;;;;5031194;28;20189;-57
2021/01/12 08:44:06;;;;;;;3.67;2.47;;;;;;;;;;5029783;28;20243;-57
2021/01/12 08:46:32;;;;;;;2.83;2.57;;;;;;;;;;5030540;28;20283;-58
2021/01/12 08:48:58;;;;;;;3.17;2.70;;;;;;;;;;5029789;28;21582;-58
2021/01/12 08:51:24;;;;;;;4.30;3.10;;;;;;;;;;5030017;28;20247;-58
2021/01/12 08:53:58;;;;;;;3.20;2.80;;;;;;;;;;5013380;28;20190;-58
2021/01/12 08:56:24;;;;;;;2.53;2.33;;;;;;;;;;5029714;28;20244;-61
2021/01/12 08:58:50;;;;;;;3.00;2.63;;;;;;;;;;5010732;28;20660;-58
2021/01/12 09:01:30;;;;;;;3.37;2.63;;;;;;;;;;5030791;28;20213;-58
2021/01/12 09:04:03;;;;;;;2.63;2.40;;;;;;;;;;5026677;28;20228;-57
2021/01/12 09:06:29;;;;;;;3.43;2.67;;;;;;;;;;5003480;28;20186;-58
2021/01/12 09:09:05;;;;;;;2.27;2.07;;;;;;;;;;5010465;28;20320;-57
2021/01/12 09:11:31;;;;;;;2.80;2.60;;;;;;;;;;5028342;28;20251;-58
2021/01/12 09:14:04;;;;;;;2.40;2.20;;;;;;;;;;5026973;28;20174;-57
2021/01/12 09:16:30;;;;;;;2.60;2.30;;;;;;;;;;4999515;28;20601;-58
2021/01/12 09:18:56;;;;;;;2.73;2.40;;;;;;;;;;5016772;28;20529;-58
2021/01/12 09:21:25;;;;;;;3.77;2.77;;;;;;;;;;5022346;28;20698;-58
2021/01/12 09:23:51;;;;;;;2.67;2.47;;;;;;;;;;5027503;28;20182;-59
2021/01/12 09:26:20;;;;;;;3.53;2.73;;;;;;;;;;5027827;28;20634;-59
2021/01/12 09:28:46;;;;;;;4.03;2.30;;;;;;;;;;5026631;28;20183;-59
2021/01/12 09:31:20;;;;;;;2.37;2.17;;;;;;;;;;5021006;28;20260;-59
2021/01/12 09:33:50;;;;;;;3.43;2.83;;;;;;;;;;5028106;28;20306;-59
2021/01/12 09:36:17;;;;;;;4.57;2.53;;;;;;;;;;5028493;28;20177;-58
2021/01/12 09:38:44;;;;;;;3.53;2.93;;;;;;;;;;5030223;28;20566;-60
2021/01/12 09:41:10;;;;;;;3.63;3.03;;;;;;;;;;5027638;28;20509;-59
2021/01/12 09:43:36;;;;;;;3.10;2.80;;;;;;;;;;5013134;28;20177;-59
2021/01/12 09:46:03;;;;;;;3.03;2.30;;;;;;;;;;5029805;28;20189;-59
2021/01/12 09:48:29;;;;;;;3.77;2.73;;;;;;;;;;5013620;28;20185;-58
2021/01/12 09:50:55;;;;;;;2.60;2.40;;;;;;;;;;5028233;28;20185;-58
2021/01/12 09:53:21;;;;;;;2.73;2.50;;;;;;;;;;5031248;28;20519;-58
2021/01/12 09:55:47;;;;;;;2.40;2.20;;;;;;;;;;5028128;28;20184;-57
2021/01/12 09:58:13;;;;;;;3.90;2.37;;;;;;;;;;5016541;28;20206;-58
2021/01/12 10:00:39;;;;;;;2.67;2.43;;;;;;;;;;5022623;28;20192;-59
2021/01/12 10:03:06;;;;;;;2.57;2.37;;;;;;;;;;5029430;28;20182;-58
2021/01/12 10:05:32;;;;;;;2.33;2.13;;;;;;;;;;5028273;28;20256;-58
2021/01/12 10:07:58;;;;;;;3.00;2.13;;;;;;;;;;5002849;28;20178;-59
2021/01/12 10:10:24;;;;;;;2.30;2.10;;;;;;;;;;5021761;28;20573;-59
2021/01/12 10:12:50;;;;;;;2.90;2.50;;;;;;;;;;5028765;28;20181;-58
2021/01/12 10:15:16;;;;;;;3.80;2.03;;;;;;;;;;5029809;28;20212;-58
2021/01/12 10:17:42;;;;;;;2.33;2.00;;;;;;;;;;5029955;28;20648;-59
2021/01/12 10:20:08;;;;;;;4.77;2.20;;;;;;;;;;5030132;28;20208;-60
2021/01/12 10:22:34;;;;;;;2.80;1.93;;;;;;;;;;5006775;28;20639;-58
2021/01/12 10:25:01;;;;;;;2.27;2.07;;;;;;;;;;5011536;28;20556;-61
2021/01/12 10:27:33;;;;;;;2.60;1.70;;;;;;;;;;5025563;28;20592;-61
2021/01/12 10:29:59;;;;;;;3.53;1.80;;;;;;;;;;5012681;28;20197;-61
2021/01/12 10:32:25;;;;;;;3.97;1.67;;;;;;;;;;5024815;28;20189;-58
2021/01/12 10:34:51;;;;;;;2.17;1.97;;;;;;;;;;5028850;28;21067;-58
2021/01/12 10:37:20;;;;;;;2.30;1.90;;;;;;;;;;5030530;28;20213;-57
2021/01/12 10:39:46;;;;;;;2.10;1.80;;;;;;;;;;5011530;28;20308;-58
2021/01/12 10:42:12;;;;;;;2.00;1.83;;;;;;;;;;5009503;28;20235;-59
2021/01/12 10:44:38;;;;;;;1.93;1.80;;;;;;;;;;5008021;28;20205;-58
2021/01/12 10:47:04;;;;;;;1.80;1.70;;;;;;;;;;5023238;28;20198;-58
2021/01/12 10:49:30;;;;;;;2.90;2.20;;;;;;;;;;5008732;28;20194;-59
2021/01/12 10:52:00;;;;;;;2.57;1.97;;;;;;;;;;5002201;28;20292;-58
2021/01/12 10:54:27;;;;;;;3.03;2.07;;;;;;;;;;5016334;28;20178;-58
2021/01/12 10:56:53;;;;;;;3.60;2.27;;;;;;;;;;5012907;28;20181;-58
2021/01/12 10:59:20;;;;;;;2.03;1.93;;;;;;;;;;5017263;28;20232;-60
2021/01/12 11:01:52;;;;;;;1.90;1.70;;;;;;;;;;5009546;28;20177;-58
2021/01/12 11:04:18;;;;;;;4.60;2.27;;;;;;;;;;5011375;28;20178;-60
2021/01/12 11:06:45;;;;;;;3.30;2.20;;;;;;;;;;5022013;28;20242;-57
2021/01/12 11:09:11;;;;;;;2.27;1.80;;;;;;;;;;5011411;28;20610;-58
2021/01/12 11:11:37;;;;;;;1.90;1.80;;;;;;;;;;5008963;28;20182;-58
2021/01/12 11:14:06;;;;;;;4.80;1.83;;;;;;;;;;4999653;28;20187;-59
2021/01/12 11:16:36;;;;;;;2.83;1.63;;;;;;;;;;5026011;28;20185;-59
2021/01/12 11:19:02;;;;;;;3.70;2.50;;;;;;;;;;5026585;28;20198;-59
2021/01/12 11:21:29;;;;;;;2.40;1.80;;;;;;;;;;5011255;28;20613;-59
2021/01/12 11:23:55;;;;;;;4.37;2.03;;;;;;;;;;5011613;28;20178;-59
2021/01/12 11:26:28;;;;;;;2.27;1.73;;;;;;;;;;5011063;28;20188;-60
2021/01/12 11:28:54;;;;;;;1.60;1.47;;;;;;;;;;5006833;28;20192;-59
2021/01/12 11:31:20;;;;;;;2.27;1.20;;;;;;;;;;5029640;28;20205;-59
2021/01/12 11:33:46;;;;;;;2.23;1.63;;;;;;;;;;5021645;28;20179;-59
2021/01/12 11:36:12;;;;;;;2.00;1.50;;;;;;;;;;5026714;28;20178;-59
2021/01/12 11:38:39;;;;;;;3.00;1.27;;;;;;;;;;5021995;28;20636;-59
2021/01/12 11:41:08;;;;;;;1.13;1.03;;;;;;;;;;5003386;28;20814;-60
2021/01/12 11:43:34;;;;;;;1.33;1.10;;;;;;;;;;5010318;28;20204;-59
2021/01/12 11:46:00;;;;;;;1.23;1.13;;;;;;;;;;5027438;28;20174;-59
2021/01/12 11:48:26;;;;;;;0.73;0.73;;;;;;;;;;5004786;28;20193;-60
2021/01/12 11:50:52;;;;;;;1.43;1.17;;;;;;;;;;5023036;28;20205;-59
2021/01/12 11:53:18;;;;;;;1.77;0.90;;;;;;;;;;5013368;28;20197;-59
2021/01/12 11:55:44;;;;;;;2.97;1.07;;;;;;;;;;5026958;28;20205;-59
2021/01/12 11:58:10;;;;;;;2.93;1.03;;;;;;;;;;5010608;28;20285;-58
2021/01/12 12:00:38;;;;;;;1.17;1.07;;;;;;;;;;4998310;28;20384;-59
2021/01/12 12:03:04;;;;;;;0.70;0.70;;;;;;;;;;5023285;28;20620;-59
2021/01/12 12:05:30;;;;;;;0.93;0.80;;;;;;;;;;5025030;28;20265;-59
2021/01/12 12:07:56;;;;;;;1.63;1.07;;;;;;;;;;5020568;28;20181;-59
2021/01/12 12:10:26;;;;;;;0.53;0.50;;;;;;;;;;5019059;28;20609;-59
2021/01/12 12:12:52;;;;;;;1.47;0.80;;;;;;;;;;5009383;28;20182;-60
2021/01/12 12:15:18;;;;;;;2.17;0.67;;;;;;;;;;5006463;28;20335;-59
2021/01/12 12:17:44;;;;;;;1.10;0.90;;;;;;;;;;5029262;28;20193;-60
2021/01/12 12:20:12;;;;;;;1.20;0.70;;;;;;;;;;5014433;28;20282;-59
2021/01/12 12:22:38;;;;;;;1.13;0.97;;;;;;;;;;5032903;28;20197;-59
2021/01/12 12:25:04;;;;;;;2.17;1.13;;;;;;;;;;5017661;28;20206;-59
2021/01/12 12:27:30;;;;;;;1.10;0.83;;;;;;;;;;5006906;28;20675;-58
2021/01/12 12:29:56;;;;;;;1.43;0.83;;;;;;;;;;5026256;28;20191;-59
2021/01/12 12:32:24;;;;;;;3.43;1.47;;;;;;;;;;5031768;28;20181;-59
2021/01/12 12:34:50;;;;;;;1.90;1.57;;;;;;;;;;5027114;28;20204;-59
2021/01/12 12:37:16;;;;;;;1.53;1.10;;;;;;;;;;5012958;28;20687;-58
2021/01/12 12:39:42;;;;;;;1.87;1.07;;;;;;;;;;5032580;28;20198;-59
2021/01/12 12:42:09;;;;;;;1.20;1.10;;;;;;;;;;5013461;28;20228;-59
2021/01/12 12:44:35;;;;;;;1.97;1.33;;;;;;;;;;5031837;28;20250;-59
2021/01/12 12:47:01;;;;;;;1.70;1.33;;;;;;;;;;5013847;28;20205;-58
2021/01/12 12:49:27;;;;;;;2.03;1.40;;;;;;;;;;5032228;28;20186;-59
2021/01/12 12:51:53;;;;;;;2.00;1.30;;;;;;;;;;5022063;28;20182;-59
2021/01/12 12:54:20;;;;;;;1.87;1.30;;;;;;;;;;5013673;28;20182;-59
2021/01/12 12:56:52;;;;;;;2.50;1.30;;;;;;;;;;5030836;28;20558;-58
2021/01/12 12:59:19;;;;;;;1.90;1.10;;;;;;;;;;5013410;28;20198;-58
2021/01/12 13:01:49;;;;;;;2.03;1.00;;;;;;;;;;5013907;28;20185;-59
2021/01/12 13:04:15;;;;;;;1.73;1.10;;;;;;;;;;5031714;28;20528;-59
2021/01/12 13:06:41;;;;;;;2.27;1.10;;;;;;;;;;5028388;28;20603;-59
2021/01/12 13:09:08;;;;;;;1.57;0.87;;;;;;;;;;5031303;28;20233;-59
2021/01/12 13:11:36;;;;;;;2.00;1.33;;;;;;;;;;5003845;28;20561;-58
2021/01/12 13:14:03;;;;;;;1.13;0.90;;;;;;;;;;5011316;28;20175;-58
2021/01/12 13:16:32;;;;;;;3.00;1.00;;;;;;;;;;5007876;28;20185;-58
2021/01/12 13:18:58;;;;;;;1.53;1.07;;;;;;;;;;5031349;28;20194;-58
2021/01/12 13:21:24;;;;;;;0.60;0.60;;;;;;;;;;5030557;28;20597;-59
2021/01/12 13:23:51;;;;;;;2.53;1.17;;;;;;;;;;5013180;28;20185;-58
2021/01/12 13:26:21;;;;;;;4.10;0.90;;;;;;;;;;5013596;28;20248;-58
2021/01/12 13:28:47;;;;;;;0.50;0.50;;;;;;;;;;5013298;28;20166;-59
2021/01/12 13:31:13;;;;;;;3.77;1.20;;;;;;;;;;5030288;28;20845;-59
2021/01/12 13:33:39;;;;;;;1.60;0.93;;;;;;;;;;5012992;28;20536;-59
2021/01/12 13:36:05;;;;;;;2.33;1.00;;;;;;;;;;5030653;28;20643;-59
2021/01/12 13:38:31;;;;;;;3.00;1.20;;;;;;;;;;5030329;28;20693;-58
2021/01/12 13:40:57;;;;;;;3.50;1.07;;;;;;;;;;5030189;28;20201;-61
2021/01/12 13:43:23;;;;;;;1.60;0.90;;;;;;;;;;5030472;28;20170;-58
2021/01/12 13:45:49;;;;;;;1.77;1.07;;;;;;;;;;5012097;28;20188;-58
2021/01/12 13:48:15;;;;;;;4.23;1.50;;;;;;;;;;5030467;28;20182;-59
2021/01/12 13:50:41;;;;;;;1.03;0.80;;;;;;;;;;5029327;28;20205;-59
2021/01/12 13:53:08;;;;;;;0.80;0.63;;;;;;;;;;5029477;28;20177;-61
2021/01/12 13:55:35;;;;;;;0.90;0.80;;;;;;;;;;5008815;28;20273;-59
2021/01/12 13:58:08;;;;;;;1.47;1.00;;;;;;;;;;5021124;28;20177;-59
2021/01/12 14:00:35;;;;;;;1.80;0.87;;;;;;;;;;5031306;28;20166;-59
2021/01/12 14:03:01;;;;;;;0.97;0.70;;;;;;;;;;5031100;28;20205;-59
2021/01/12 14:05:28;;;;;;;2.07;0.70;;;;;;;;;;5013130;28;20777;-61
2021/01/12 14:07:54;;;;;;;2.20;0.93;;;;;;;;;;5020206;28;20629;-59
2021/01/12 14:10:20;;;;;;;2.23;0.70;;;;;;;;;;5024984;28;20559;-58
2021/01/12 14:12:49;;;;;;;2.63;1.10;;;;;;;;;;5030685;28;20174;-58
2021/01/12 14:15:16;;;;;;;1.00;0.77;;;;;;;;;;5030260;28;20177;-58
2021/01/12 14:17:50;;;;;;;0.93;0.60;;;;;;;;;;5015518;28;20905;-59
2021/01/12 14:20:16;;;;;;;0.90;0.73;;;;;;;;;;5024854;28;20228;-58
2021/01/12 14:22:42;;;;;;;0.67;0.67;;;;;;;;;;5025170;28;20209;-58
2021/01/12 14:25:09;;;;;;;1.13;0.70;;;;;;;;;;5010434;28;20170;-59
2021/01/12 14:27:38;;;;;;;1.40;0.83;;;;;;;;;;5012499;28;20290;-59
2021/01/12 14:30:05;;;;;;;2.97;1.37;;;;;;;;;;5012663;28;20180;-58
2021/01/12 14:32:31;;;;;;;2.57;0.77;;;;;;;;;;5006848;28;20189;-59
2021/01/12 14:34:57;;;;;;;2.17;1.23;;;;;;;;;;5024940;28;20669;-59
2021/01/12 14:37:24;;;;;;;2.73;1.33;;;;;;;;;;5020320;28;20170;-59
2021/01/12 14:39:56;;;;;;;3.97;1.00;;;;;;;;;;5015869;28;20194;-59
2021/01/12 14:42:22;;;;;;;2.23;0.77;;;;;;;;;;5026487;28;20689;-59